メインページ
METAR-TAF:

METAR-TAF

空港 :

Chimoio, モザンビーク

緯度: 19-07S, 経度: 033-28E, 海抜: 731m

現時点の気象観測

当レポートは1時間41分前の22:00(UTC)に作成
気温 17°C
湿度 94%
気圧 1028 hPa
視程10km以上
高度1500ftの雲はほとんどない
高度2000ftの千切れ雲あり

METAR: FQCH 232200Z /////KT 9999 FEW015 BKN020 17/16 Q1028

時間: 01:41 (23:41 UTC)

予報

当レポートは7時間41分前の16:00(UTC)に作成
予報は23日の 18時(UTC)から 24日の 18時(UTC)まで有効
南/南東の風 12kt
視程10km以上
高度2000ftの千切れ雲あり
24日の 00時(UTC)から 24日の 02時(UTC)まで徐々に
南/南西の風 8kt
24日の 10時(UTC)から 24日の 12時(UTC)まで徐々に
南/南東の風 10kt、最大20ktの突風を伴う

TAF: FQCH 231600Z 2318/2418 16012KT 9999 BKN020 TX21/2413Z TN12/2402Z BECMG 2400/2402 21008KT BECMG 2410/2412 15010G20KT

4,000以上の空港の気象観測と天気予報(METAR報とTAF報)

利用可能な観測所は地図上に黄色い丸と赤い丸で示す。

丸の上にカーソルを重ねると観測所名を参照できる。

次にクリックすると気象観測と天気予報を参照できる。

マップの切り替え:黒色「×」印の緑ボタンをクリックして拡大、「-」印の緑ボタンをクリックして縮小、緑色の三角印をクリックして隣りの地図に切り替え


METAR-TAF: